createdAt,value
2018-11-10T00:00:52.855Z,148.90
2018-11-10T00:01:52.769Z,143.10
2018-11-10T00:02:52.701Z,151.00
2018-11-10T00:03:52.605Z,146.40
2018-11-10T00:04:52.519Z,134.70
2018-11-10T00:05:52.432Z,132.40
2018-11-10T00:06:52.358Z,128.10
2018-11-10T00:07:52.331Z,130.70
2018-11-10T00:08:52.182Z,130.90
2018-11-10T00:09:52.107Z,123.70
2018-11-10T00:10:52.020Z,127.40
2018-11-10T00:11:51.932Z,124.50
2018-11-10T00:12:51.857Z,128.50
2018-11-10T00:13:51.770Z,124.40
2018-11-10T00:14:51.682Z,122.30
2018-11-10T00:15:51.607Z,128.30
2018-11-10T00:16:51.521Z,127.00
2018-11-10T00:17:51.433Z,121.60
2018-11-10T00:18:51.362Z,124.50
2018-11-10T00:19:51.276Z,117.40
2018-11-10T00:20:51.182Z,123.20
2018-11-10T00:21:51.100Z,118.80
2018-11-10T00:22:51.038Z,127.40
2018-11-10T00:23:50.947Z,129.60
2018-11-10T00:24:50.847Z,121.30
2018-11-10T00:25:50.772Z,124.40
2018-11-10T00:26:50.684Z,119.10
2018-11-10T00:27:50.597Z,128.10
2018-11-10T00:28:50.521Z,130.00
2018-11-10T00:29:50.448Z,123.10
2018-11-10T00:30:50.347Z,128.90
2018-11-10T00:31:50.272Z,131.20
2018-11-10T00:32:50.184Z,138.20
2018-11-10T00:33:50.099Z,142.20
2018-11-10T00:34:50.064Z,128.00
2018-11-10T00:35:49.936Z,141.90
2018-11-10T00:36:49.849Z,134.80
2018-11-10T00:37:49.773Z,130.60
2018-11-10T00:38:49.689Z,141.90
2018-11-10T00:39:49.597Z,136.80
2018-11-10T00:40:49.524Z,134.00
2018-11-10T00:41:49.435Z,142.70
2018-11-10T00:42:49.349Z,132.60
2018-11-10T00:43:49.274Z,135.80
2018-11-10T00:44:49.186Z,138.40
2018-11-10T00:45:49.099Z,135.00
2018-11-10T00:46:49.024Z,139.10
2018-11-10T00:47:48.935Z,144.00
2018-11-10T00:48:48.852Z,137.40
2018-11-10T00:49:48.761Z,142.00
2018-11-10T00:50:48.686Z,135.00
2018-11-10T00:51:48.598Z,138.40
2018-11-10T00:52:48.512Z,135.90
2018-11-10T00:53:48.436Z,138.50
2018-11-10T00:54:48.352Z,135.80
2018-11-10T00:55:48.261Z,149.00
2018-11-10T00:56:48.187Z,139.00
2018-11-10T00:57:48.099Z,151.30
2018-11-10T00:58:48.012Z,140.10
2018-11-10T00:59:47.925Z,138.90
2018-11-10T01:00:47.851Z,144.30
2018-11-10T01:01:47.764Z,144.40
2018-11-10T01:02:47.675Z,143.50
2018-11-10T01:03:47.601Z,154.00
2018-11-10T01:04:47.513Z,145.60
2018-11-10T01:05:47.429Z,139.70
2018-11-10T01:06:47.395Z,149.10
2018-11-10T01:07:47.263Z,153.20
2018-11-10T01:08:47.175Z,156.50
2018-11-10T01:09:47.090Z,152.70
2018-11-10T01:10:47.014Z,153.30
2018-11-10T01:11:46.928Z,144.60
2018-11-10T01:12:46.854Z,143.40
2018-11-10T01:13:46.763Z,151.90
2018-11-10T01:14:46.678Z,151.70
2018-11-10T01:15:46.603Z,150.60
2018-11-10T01:16:46.515Z,139.90
2018-11-10T01:17:46.433Z,144.70
2018-11-10T01:18:46.339Z,159.60
2018-11-10T01:19:46.264Z,167.70
2018-11-10T01:20:46.177Z,169.20
2018-11-10T01:21:46.105Z,167.30
2018-11-10T01:22:46.004Z,169.20
2018-11-10T01:23:45.934Z,190.00
2018-11-10T01:24:45.841Z,183.50
2018-11-10T01:25:45.754Z,166.30
2018-11-10T01:26:45.678Z,209.00
2018-11-10T01:27:45.656Z,171.40
2018-11-10T01:28:45.504Z,153.40
2018-11-10T01:29:45.433Z,193.50
2018-11-10T01:30:45.342Z,185.10
2018-11-10T01:31:45.254Z,170.70
2018-11-10T01:32:45.169Z,186.80
2018-11-10T01:33:45.092Z,188.10
2018-11-10T01:34:45.005Z,174.00
2018-11-10T01:35:44.917Z,178.70
2018-11-10T01:36:44.841Z,160.40
2018-11-10T01:37:44.761Z,175.70
2018-11-10T01:38:44.668Z,186.60
2018-11-10T01:39:44.592Z,180.60
2018-11-10T01:40:44.507Z,185.30
2018-11-10T01:41:44.430Z,184.80
2018-11-10T01:42:44.331Z,188.10
2018-11-10T01:43:44.255Z,203.90
2018-11-10T01:44:44.167Z,174.70
2018-11-10T01:45:44.084Z,169.80
2018-11-10T01:46:44.005Z,180.80
2018-11-10T01:47:43.919Z,207.80
2018-11-10T01:48:43.831Z,179.50
2018-11-10T01:49:43.744Z,176.20
2018-11-10T01:50:43.681Z,174.10
2018-11-10T01:51:43.582Z,188.40
2018-11-10T01:52:43.494Z,172.10
2018-11-10T01:53:43.419Z,194.40
2018-11-10T01:54:43.332Z,189.10
2018-11-10T01:55:43.243Z,169.40
2018-11-10T01:56:43.168Z,181.10
2018-11-10T01:57:43.084Z,188.20
2018-11-10T01:58:42.994Z,193.50
2018-11-10T01:59:42.908Z,177.10
2018-11-10T02:00:42.833Z,191.00
2018-11-10T02:01:42.745Z,192.10
2018-11-10T02:02:42.658Z,190.20
2018-11-10T02:03:42.583Z,188.90
2018-11-10T02:04:42.495Z,181.10
2018-11-10T02:05:42.410Z,196.10
2018-11-10T02:06:42.397Z,180.40
2018-11-10T02:07:42.247Z,185.90
2018-11-10T02:08:42.158Z,211.40
2018-11-10T02:09:42.071Z,198.10
2018-11-10T02:10:41.996Z,169.00
2018-11-10T02:11:41.909Z,196.50
2018-11-10T02:12:41.820Z,178.10
2018-11-10T02:13:41.734Z,171.20
2018-11-10T02:14:41.659Z,181.70
2018-11-10T02:15:41.571Z,183.00
2018-11-10T02:16:41.484Z,161.00
2018-11-10T02:17:41.409Z,184.00
2018-11-10T02:18:41.321Z,182.10
2018-11-10T02:19:41.235Z,204.50
2018-11-10T02:20:41.160Z,210.50
2018-11-10T02:21:41.071Z,198.40
2018-11-10T02:22:40.987Z,188.60
2018-11-10T02:23:40.897Z,190.60
2018-11-10T02:24:40.821Z,212.50
2018-11-10T02:25:40.737Z,220.70
2018-11-10T02:26:40.647Z,193.60
2018-11-10T02:27:40.572Z,189.30
2018-11-10T02:28:40.493Z,210.60
2018-11-10T02:29:40.397Z,190.90
2018-11-10T02:30:40.311Z,205.00
2018-11-10T02:31:40.236Z,190.10
2018-11-10T02:32:40.153Z,193.10
2018-11-10T02:33:40.061Z,225.00
2018-11-10T02:34:39.975Z,191.80
2018-11-10T02:35:39.899Z,212.90
2018-11-10T02:36:39.814Z,232.80
2018-11-10T02:37:39.723Z,197.40
2018-11-10T02:38:39.792Z,218.50
2018-11-10T02:39:39.564Z,199.60
2018-11-10T02:40:39.474Z,204.10
2018-11-10T02:41:39.390Z,177.50
2018-11-10T02:42:39.313Z,204.20
2018-11-10T02:43:39.226Z,189.00
2018-11-10T02:44:39.137Z,181.60
2018-11-10T02:45:39.062Z,200.80
2018-11-10T02:46:38.987Z,183.90
2018-11-10T02:47:38.888Z,215.40
2018-11-10T02:48:38.803Z,195.50
2018-11-10T02:49:38.724Z,178.50
2018-11-10T02:50:38.638Z,225.10
2018-11-10T02:51:38.550Z,194.20
2018-11-10T02:52:38.523Z,180.10
2018-11-10T02:53:38.388Z,192.70
2018-11-10T02:54:38.300Z,197.10
2018-11-10T02:55:38.214Z,204.90
2018-11-10T02:56:38.139Z,202.30
2018-11-10T02:57:38.051Z,215.40
2018-11-10T02:58:37.964Z,171.40
2018-11-10T02:59:37.888Z,215.10
2018-11-10T03:00:37.800Z,189.30
2018-11-10T03:01:37.714Z,219.00
2018-11-10T03:02:37.626Z,194.30
2018-11-10T03:03:37.553Z,184.10
2018-11-10T03:04:37.466Z,210.60
2018-11-10T03:05:37.376Z,184.10
2018-11-10T03:06:37.301Z,207.30
2018-11-10T03:07:37.214Z,179.20
2018-11-10T03:08:37.140Z,209.90
2018-11-10T03:09:37.040Z,218.30
2018-11-10T03:10:37.021Z,178.50
2018-11-10T03:11:36.877Z,193.20
2018-11-10T03:12:36.790Z,219.40
2018-11-10T03:13:36.705Z,220.10
2018-11-10T03:14:36.644Z,182.60
2018-11-10T03:15:36.540Z,182.70
2018-11-10T03:16:36.456Z,220.70
2018-11-10T03:17:36.379Z,194.10
2018-11-10T03:18:36.290Z,201.10
2018-11-10T03:19:36.203Z,179.50
2018-11-10T03:20:36.128Z,198.60
2018-11-10T03:21:36.041Z,192.50
2018-11-10T03:22:35.953Z,195.00
2018-11-10T03:23:35.867Z,177.40
2018-11-10T03:24:35.792Z,200.60
2018-11-10T03:25:35.704Z,204.80
2018-11-10T03:26:35.622Z,178.00
2018-11-10T03:27:35.529Z,190.00
2018-11-10T03:28:35.467Z,181.40
2018-11-10T03:29:35.368Z,174.90
2018-11-10T03:30:35.279Z,194.70
2018-11-10T03:31:35.204Z,212.30
2018-11-10T03:32:35.117Z,195.10
2018-11-10T03:33:35.030Z,191.80
2018-11-10T03:34:34.943Z,185.20
2018-11-10T03:35:34.868Z,180.90
2018-11-10T03:36:34.779Z,178.80
2018-11-10T03:37:34.693Z,235.20
2018-11-10T03:38:34.605Z,247.40
2018-11-10T03:39:34.530Z,184.40
2018-11-10T03:40:34.444Z,205.70
2018-11-10T03:41:34.359Z,220.40
2018-11-10T03:42:34.280Z,176.80
2018-11-10T03:43:34.194Z,186.80
2018-11-10T03:44:34.119Z,201.60
2018-11-10T03:45:34.019Z,198.30
2018-11-10T03:46:33.946Z,190.20
2018-11-10T03:47:33.856Z,203.60
2018-11-10T03:48:33.815Z,211.30
2018-11-10T03:49:33.681Z,194.90
2018-11-10T03:50:33.620Z,219.90
2018-11-10T03:51:33.520Z,197.40
2018-11-10T03:52:33.431Z,226.60
2018-11-10T03:53:33.358Z,216.50
2018-11-10T03:54:33.269Z,203.70
2018-11-10T03:55:33.183Z,171.50
2018-11-10T03:56:33.095Z,189.70
2018-11-10T03:57:33.021Z,191.20
2018-11-10T03:58:32.933Z,178.50
2018-11-10T03:59:32.846Z,174.00
2018-11-10T04:00:32.757Z,217.90
2018-11-10T04:01:32.683Z,209.50
2018-11-10T04:02:32.597Z,196.00
2018-11-10T04:03:32.507Z,200.40
2018-11-10T04:04:32.447Z,212.70
2018-11-10T04:05:32.346Z,206.30
2018-11-10T04:06:32.258Z,221.90
2018-11-10T04:07:32.174Z,223.50
2018-11-10T04:08:32.097Z,218.90
2018-11-10T04:09:32.008Z,222.10
2018-11-10T04:10:31.922Z,218.50
2018-11-10T04:11:31.834Z,230.80
2018-11-10T04:12:31.759Z,261.40
2018-11-10T04:13:31.671Z,254.90
2018-11-10T04:17:56.061Z,347.10
2018-11-10T05:54:29.525Z,191.10
2018-11-10T05:59:22.835Z,211.30
2018-11-10T06:00:30.520Z,177.80
2018-11-10T06:01:22.670Z,189.00
2018-11-10T06:02:22.585Z,203.50
2018-11-10T06:03:22.555Z,220.80
2018-11-10T06:04:22.613Z,229.10
2018-11-10T06:05:22.535Z,211.50
2018-11-10T06:07:22.385Z,167.60
2018-11-10T06:08:22.076Z,180.80
2018-11-10T06:09:22.081Z,179.50
2018-11-10T06:10:22.099Z,185.60
2018-11-10T06:11:22.238Z,208.20
2018-11-10T06:12:21.736Z,178.70
2018-11-10T06:13:21.662Z,183.80
2018-11-10T06:14:21.574Z,201.60
2018-11-10T06:15:21.488Z,187.20
2018-11-10T06:16:21.400Z,187.50
2018-11-10T06:17:21.537Z,207.20
2018-11-10T06:19:21.162Z,182.90
2018-11-10T06:20:21.073Z,180.70
2018-11-10T06:21:20.987Z,195.30
2018-11-10T06:22:20.898Z,178.50
2018-11-10T06:23:21.417Z,188.50
2018-11-10T06:24:21.138Z,212.30
2018-11-10T06:25:20.651Z,223.70
2018-11-10T06:26:20.563Z,170.30
2018-11-10T06:28:20.798Z,193.50
2018-11-10T06:29:20.515Z,178.20
2018-11-10T06:30:20.638Z,181.20
2018-11-10T06:31:20.349Z,181.40
2018-11-10T06:32:20.493Z,193.00
2018-11-10T06:33:19.976Z,183.60
2018-11-10T06:34:20.092Z,179.40
2018-11-10T06:36:19.939Z,179.90
2018-11-10T06:37:20.038Z,181.50
2018-11-10T06:38:19.752Z,180.00
2018-11-10T06:39:19.888Z,174.50
2018-11-10T06:40:21.206Z,189.60
2018-11-10T06:41:20.269Z,185.30
2018-11-10T06:42:19.213Z,174.80
2018-11-10T06:43:19.488Z,178.70
2018-11-10T06:44:21.216Z,181.50
2018-11-10T06:45:19.365Z,179.10
2018-11-10T06:54:50.245Z,176.20
2018-11-10T07:03:49.494Z,152.90
2018-11-10T07:04:44.789Z,153.50
2018-11-10T07:05:44.198Z,148.60
2018-11-10T07:06:44.904Z,164.00
2018-11-10T07:08:01.646Z,142.90
2018-11-10T07:08:44.350Z,153.10
2018-11-10T07:10:47.358Z,147.80
2018-11-10T07:12:43.508Z,154.90
2018-11-10T07:15:25.107Z,138.00
2018-11-10T07:18:30.490Z,159.80
2018-11-10T07:23:24.532Z,165.30
2018-11-10T07:28:23.605Z,119.80
2018-11-10T07:29:23.744Z,143.00
2018-11-10T07:30:24.248Z,138.40
2018-11-10T07:31:23.369Z,124.30
2018-11-10T07:32:23.270Z,167.80
2018-11-10T07:33:23.194Z,116.90
2018-11-10T07:34:23.109Z,137.70
2018-11-10T07:36:22.945Z,117.60
2018-11-10T07:37:22.871Z,172.00
2018-11-10T07:38:22.771Z,143.70
2018-11-10T07:39:22.682Z,111.50
2018-11-10T07:40:22.606Z,119.70
2018-11-10T07:41:22.520Z,137.00
2018-11-10T07:42:22.432Z,122.60
2018-11-10T07:43:22.360Z,143.30
2018-11-10T07:44:22.270Z,131.00
2018-11-10T07:45:22.185Z,143.20
2018-11-10T07:46:22.107Z,135.00
2018-11-10T07:47:22.021Z,155.80
2018-11-10T07:48:21.933Z,145.30
2018-11-10T07:49:21.898Z,141.90
2018-11-10T07:50:21.771Z,155.80
2018-11-10T07:51:21.770Z,118.10
2018-11-10T07:52:21.597Z,106.40
2018-11-10T07:53:21.522Z,99.20
2018-11-10T07:54:21.480Z,105.60
2018-11-10T07:55:21.347Z,110.10
2018-11-10T07:56:21.260Z,146.40
2018-11-10T07:57:21.184Z,114.30
2018-11-10T07:58:21.098Z,105.70
2018-11-10T07:59:21.010Z,102.20
2018-11-10T08:00:20.935Z,117.70
2018-11-10T08:01:20.848Z,104.90
2018-11-10T08:02:20.759Z,130.50
2018-11-10T08:03:20.685Z,93.20
2018-11-10T08:04:20.615Z,98.90
2018-11-10T08:05:20.510Z,98.20
2018-11-10T08:06:20.448Z,84.70
2018-11-10T08:07:20.348Z,87.90
2018-11-10T08:08:20.260Z,87.70
2018-11-10T08:09:20.185Z,84.90
2018-11-10T08:10:20.111Z,87.60
2018-11-10T08:11:20.010Z,79.50
2018-11-10T08:12:19.924Z,90.00
2018-11-10T08:13:19.849Z,91.00
2018-11-10T08:14:19.761Z,78.40
2018-11-10T08:15:19.674Z,90.40
2018-11-10T08:16:19.599Z,94.10
2018-11-10T08:17:19.510Z,85.90
2018-11-10T08:18:19.466Z,83.00
2018-11-10T08:19:19.350Z,78.50
2018-11-10T08:20:19.261Z,81.60
2018-11-10T08:21:19.175Z,79.80
2018-11-10T08:22:19.100Z,73.80
2018-11-10T08:23:19.013Z,77.00
2018-11-10T08:24:18.927Z,74.70
2018-11-10T08:25:18.851Z,66.70
2018-11-10T08:26:18.761Z,69.60
2018-11-10T08:27:18.677Z,73.10
2018-11-10T08:28:18.605Z,67.80
2018-11-10T08:29:18.519Z,75.50
2018-11-10T08:30:18.426Z,81.30
2018-11-10T08:31:18.425Z,75.60
2018-11-10T08:32:18.262Z,69.90
2018-11-10T08:33:18.176Z,68.10
2018-11-10T08:34:18.101Z,70.30
2018-11-10T08:35:18.013Z,64.70
2018-11-10T08:36:17.928Z,67.20
2018-11-10T08:37:17.851Z,60.50
2018-11-10T08:38:17.765Z,69.30
2018-11-10T08:39:17.710Z,63.20
2018-11-10T08:40:17.603Z,69.30
2018-11-10T08:41:17.513Z,69.00
2018-11-10T08:42:17.428Z,65.60
2018-11-10T08:43:17.380Z,67.30
2018-11-10T08:44:17.263Z,66.40
2018-11-10T08:45:17.177Z,64.00
2018-11-10T08:46:17.102Z,66.30
2018-11-10T08:47:17.014Z,68.90
2018-11-10T08:48:16.928Z,65.20
2018-11-10T08:49:16.953Z,71.00
2018-11-10T08:50:16.765Z,64.80
2018-11-10T08:51:16.689Z,62.50
2018-11-10T08:52:16.609Z,73.00
2018-11-10T08:53:16.529Z,63.90
2018-11-10T08:54:16.430Z,66.20
2018-11-10T08:55:16.354Z,65.40
2018-11-10T08:56:16.265Z,67.90
2018-11-10T08:57:16.179Z,67.70
2018-11-10T08:58:16.104Z,64.40
2018-11-10T08:59:16.088Z,64.80
2018-11-10T09:00:15.938Z,61.90
2018-11-10T09:01:15.885Z,64.60
2018-11-10T09:02:15.765Z,63.70
2018-11-10T09:03:15.678Z,62.80
2018-11-10T09:04:15.610Z,62.90
2018-11-10T09:05:15.516Z,62.00
2018-11-10T09:06:15.441Z,61.00
2018-11-10T09:07:15.355Z,62.80
2018-11-10T09:08:15.281Z,65.80
2018-11-10T09:09:15.192Z,56.10
2018-11-10T09:10:15.108Z,55.50
2018-11-10T09:11:15.017Z,63.40
2018-11-10T09:12:14.942Z,61.80
2018-11-10T09:13:14.855Z,60.00
2018-11-10T09:14:14.768Z,56.30
2018-11-10T09:15:14.791Z,61.80
2018-11-10T09:16:14.606Z,61.70
2018-11-10T09:17:14.517Z,62.00
2018-11-10T09:18:14.454Z,62.10
2018-11-10T09:19:14.366Z,55.80
2018-11-10T09:20:14.270Z,58.90
2018-11-10T09:21:14.300Z,59.40
2018-11-10T09:22:14.107Z,56.30
2018-11-10T09:23:14.020Z,58.80
2018-11-10T09:24:13.944Z,56.40
2018-11-10T09:25:13.873Z,57.20
2018-11-10T09:26:13.782Z,62.60
2018-11-10T09:27:13.694Z,56.40
2018-11-10T09:28:13.606Z,58.90
2018-11-10T09:29:13.532Z,58.30
2018-11-10T09:30:13.444Z,57.70
2018-11-10T09:31:13.371Z,59.90
2018-11-10T09:32:13.282Z,60.90
2018-11-10T09:33:13.194Z,59.40
2018-11-10T09:34:13.120Z,54.50
2018-11-10T09:35:13.032Z,56.30
2018-11-10T09:36:12.981Z,56.30
2018-11-10T09:37:12.869Z,55.10
2018-11-10T09:38:12.783Z,58.40
2018-11-10T09:39:12.695Z,56.00
2018-11-10T09:40:12.619Z,53.20
2018-11-10T09:41:12.534Z,54.00
2018-11-10T09:42:12.488Z,53.00
2018-11-10T09:43:12.370Z,54.50
2018-11-10T09:44:12.290Z,54.20
2018-11-10T09:45:12.209Z,53.50
2018-11-10T09:46:12.128Z,52.80
2018-11-10T09:47:12.035Z,53.30
2018-11-10T09:48:11.961Z,52.90
2018-11-10T09:49:11.871Z,52.60
2018-11-10T09:50:11.810Z,56.10
2018-11-10T09:51:11.712Z,51.50
2018-11-10T09:52:11.622Z,55.30
2018-11-10T09:53:11.547Z,54.40
2018-11-10T09:54:11.471Z,50.30
2018-11-10T09:55:11.372Z,53.40
2018-11-10T09:56:11.313Z,55.30
2018-11-10T09:57:11.210Z,55.40
2018-11-10T09:58:11.136Z,57.20
2018-11-10T09:59:11.048Z,52.00
2018-11-10T10:00:10.961Z,51.20
2018-11-10T10:01:11.003Z,53.60
2018-11-10T10:02:11.130Z,53.80
2018-11-10T10:03:10.723Z,51.50
2018-11-10T10:04:10.637Z,53.00
2018-11-10T10:05:10.561Z,51.40
2018-11-10T10:06:10.474Z,49.60
2018-11-10T10:07:10.391Z,51.20
2018-11-10T10:08:10.299Z,46.60
2018-11-10T10:09:10.224Z,54.10
2018-11-10T10:10:10.137Z,48.90
2018-11-10T10:11:10.065Z,53.80
2018-11-10T10:12:09.973Z,52.50
2018-11-10T10:13:09.887Z,48.40
2018-11-10T10:14:09.813Z,52.00
2018-11-10T10:15:09.724Z,50.50
2018-11-10T10:16:09.721Z,47.80
2018-11-10T10:17:09.562Z,49.90
2018-11-10T10:18:09.487Z,52.30
2018-11-10T10:19:09.399Z,50.60
2018-11-10T10:20:09.315Z,47.80
2018-11-10T10:21:09.240Z,50.90
2018-11-10T10:22:09.150Z,48.80
2018-11-10T10:23:09.063Z,50.20
2018-11-10T10:24:08.988Z,47.10
2018-11-10T10:25:08.900Z,49.40
2018-11-10T10:26:08.825Z,54.30
2018-11-10T10:27:08.753Z,53.50
2018-11-10T10:28:08.656Z,52.30
2018-11-10T10:29:08.652Z,48.00
2018-11-10T10:30:08.492Z,49.90
2018-11-10T10:31:08.415Z,47.20
2018-11-10T10:32:08.326Z,48.70
2018-11-10T10:33:08.251Z,50.20
2018-11-10T10:34:08.232Z,51.10
2018-11-10T10:35:08.186Z,48.40
2018-11-10T10:36:08.001Z,49.60
2018-11-10T10:37:07.914Z,50.50
2018-11-10T10:38:07.843Z,50.90
2018-11-10T10:39:07.752Z,48.10
2018-11-10T10:40:07.668Z,45.90
2018-11-10T10:41:07.590Z,43.90
2018-11-10T10:42:07.502Z,46.30
2018-11-10T10:43:07.463Z,43.40
2018-11-10T10:44:07.345Z,45.30
2018-11-10T10:45:07.254Z,45.90
2018-11-10T10:46:07.193Z,46.50
2018-11-10T10:47:07.096Z,42.70
2018-11-10T10:48:07.008Z,45.80
2018-11-10T10:49:06.998Z,44.70
2018-11-10T10:50:06.844Z,46.40
2018-11-10T10:51:06.826Z,45.40
2018-11-10T10:52:06.677Z,42.80
2018-11-10T10:53:06.603Z,41.80
2018-11-10T10:54:06.516Z,43.60
2018-11-10T10:55:06.429Z,39.60
2018-11-10T10:56:06.386Z,43.90
2018-11-10T10:57:06.312Z,35.10
2018-11-10T10:58:06.192Z,40.80
2018-11-10T10:59:06.104Z,40.20
2018-11-10T11:00:06.029Z,39.30
2018-11-10T11:01:05.942Z,40.80
2018-11-10T11:02:05.868Z,38.60
2018-11-10T11:03:05.921Z,37.30
2018-11-10T11:04:05.693Z,37.80
2018-11-10T11:05:05.619Z,38.80
2018-11-10T11:06:05.530Z,35.10
2018-11-10T11:07:05.459Z,39.10
2018-11-10T11:08:05.368Z,37.20
2018-11-10T11:09:05.381Z,38.30
2018-11-10T11:10:05.218Z,39.00
2018-11-10T11:11:05.130Z,39.80
2018-11-10T11:12:05.054Z,37.40
2018-11-10T11:13:05.015Z,38.90
2018-11-10T11:14:04.880Z,36.10
2018-11-10T11:15:04.851Z,36.00
2018-11-10T11:16:04.720Z,37.70
2018-11-10T11:17:04.644Z,38.00
2018-11-10T11:18:04.557Z,36.70
2018-11-10T11:19:04.481Z,37.20
2018-11-10T11:20:04.401Z,38.00
2018-11-10T11:21:04.320Z,33.80
2018-11-10T11:22:04.273Z,33.30
2018-11-10T11:23:04.156Z,37.20
2018-11-10T11:24:04.070Z,37.60
2018-11-10T11:25:03.995Z,36.30
2018-11-10T11:26:03.908Z,34.10
2018-11-10T11:27:03.832Z,38.60
2018-11-10T11:28:03.747Z,36.70
2018-11-10T11:29:03.698Z,36.60
2018-11-10T11:30:03.582Z,34.60
2018-11-10T11:31:03.518Z,38.10
2018-11-10T11:32:03.421Z,35.00
2018-11-10T11:33:03.346Z,40.00
2018-11-10T11:34:03.259Z,34.90
2018-11-10T11:35:03.211Z,35.40
2018-11-10T11:36:03.096Z,36.40
2018-11-10T11:37:03.013Z,35.50
2018-11-10T11:38:02.949Z,35.70
2018-11-10T11:39:02.846Z,33.60
2018-11-10T11:40:02.771Z,33.30
2018-11-10T11:41:02.735Z,36.10
2018-11-10T11:42:02.609Z,35.40
2018-11-10T11:43:02.522Z,33.20
2018-11-10T11:44:02.448Z,32.50
2018-11-10T11:45:02.361Z,36.10
2018-11-10T11:46:02.284Z,34.10
2018-11-10T11:47:02.209Z,33.00
2018-11-10T11:48:02.123Z,33.20
2018-11-10T11:49:02.047Z,34.50
2018-11-10T11:50:02.025Z,32.60
2018-11-10T11:51:01.886Z,33.30
2018-11-10T11:52:01.797Z,34.50
2018-11-10T11:53:01.728Z,33.40
2018-11-10T11:54:01.635Z,32.80
2018-11-10T11:55:01.560Z,31.70
2018-11-10T11:56:01.473Z,30.30
2018-11-10T11:57:01.399Z,31.50
2018-11-10T11:58:01.404Z,30.90
2018-11-10T11:59:01.236Z,31.20
2018-11-10T12:00:01.161Z,34.20
2018-11-10T12:01:01.075Z,31.80
2018-11-10T12:02:01.004Z,31.20
2018-11-10T12:03:00.911Z,30.70
2018-11-10T12:04:00.836Z,31.90
2018-11-10T12:05:00.749Z,34.50
2018-11-10T12:06:00.674Z,32.50
2018-11-10T12:07:00.588Z,31.30
2018-11-10T12:08:00.511Z,34.40
2018-11-10T12:09:00.436Z,31.10
2018-11-10T12:10:00.350Z,30.00
2018-11-10T12:11:00.274Z,30.70
2018-11-10T12:12:00.187Z,31.90
2018-11-10T12:13:00.124Z,31.80
2018-11-10T12:14:00.037Z,31.40
2018-11-10T12:14:59.950Z,31.10
2018-11-10T12:15:59.875Z,29.80
2018-11-10T12:16:59.803Z,31.70
2018-11-10T12:17:59.714Z,31.20
2018-11-10T12:18:59.637Z,31.10
2018-11-10T12:19:59.551Z,29.30
2018-11-10T12:20:59.530Z,28.00
2018-11-10T12:21:59.408Z,29.90
2018-11-10T12:22:59.313Z,31.60
2018-11-10T12:23:59.239Z,27.40
2018-11-10T12:24:59.152Z,31.20
2018-11-10T12:25:59.077Z,30.10
2018-11-10T12:26:59.030Z,29.10
2018-11-10T12:27:58.914Z,28.90
2018-11-10T12:28:58.840Z,30.30
2018-11-10T12:29:58.753Z,29.10
2018-11-10T12:30:58.677Z,30.40
2018-11-10T12:31:58.625Z,31.00
2018-11-10T12:32:58.515Z,29.80
2018-11-10T12:33:58.439Z,29.90
2018-11-10T12:34:58.357Z,30.40
2018-11-10T12:35:58.278Z,29.40
2018-11-10T12:36:58.190Z,30.60
2018-11-10T12:37:58.115Z,27.80
2018-11-10T12:38:58.119Z,29.00
2018-11-10T12:39:57.953Z,29.60
2018-11-10T12:40:57.867Z,29.10
2018-11-10T12:41:57.803Z,29.50
2018-11-10T12:42:57.706Z,30.40
2018-11-10T12:43:57.629Z,28.40
2018-11-10T12:44:57.542Z,30.80
2018-11-10T12:45:57.466Z,30.70
2018-11-10T12:46:57.391Z,30.50
2018-11-10T12:47:57.304Z,31.90
2018-11-10T12:48:57.272Z,30.80
2018-11-10T12:49:57.140Z,32.60
2018-11-10T12:50:57.069Z,31.00
2018-11-10T12:51:56.979Z,32.40
2018-11-10T12:52:56.906Z,30.40
2018-11-10T12:53:56.816Z,32.60
2018-11-10T12:54:56.842Z,32.60
2018-11-10T12:55:56.656Z,30.40
2018-11-10T12:56:56.583Z,34.10
2018-11-10T12:57:56.499Z,30.20
2018-11-10T12:58:56.438Z,32.60
2018-11-10T12:59:56.332Z,32.60
2018-11-10T13:00:56.256Z,33.20
2018-11-10T13:01:56.170Z,32.90
2018-11-10T13:02:56.093Z,34.00
2018-11-10T13:03:56.051Z,29.80
2018-11-10T13:04:55.919Z,33.50
2018-11-10T13:05:55.844Z,31.30
2018-11-10T13:06:55.787Z,30.50
2018-11-10T13:07:55.720Z,31.30
2018-11-10T13:08:55.624Z,31.80
2018-11-10T13:09:55.518Z,32.10
2018-11-10T13:10:55.549Z,30.80
2018-11-10T13:11:55.485Z,30.30
2018-11-10T13:12:55.281Z,32.80
2018-11-10T13:13:55.195Z,33.60
2018-11-10T13:14:55.107Z,33.20
2018-11-10T13:15:55.032Z,32.70
2018-11-10T13:16:54.944Z,32.30
2018-11-10T13:17:54.869Z,33.20
2018-11-10T13:18:54.782Z,31.50
2018-11-10T13:19:54.707Z,31.70
2018-11-10T13:20:54.619Z,32.80
2018-11-10T13:21:54.546Z,32.30
2018-11-10T13:22:54.458Z,33.00
2018-11-10T13:23:54.427Z,32.20
2018-11-10T13:24:54.294Z,34.80
2018-11-10T13:25:54.209Z,31.60
2018-11-10T13:26:54.133Z,34.50
2018-11-10T13:27:54.045Z,33.30
2018-11-10T13:28:53.971Z,33.10
2018-11-10T13:29:53.883Z,34.00
2018-11-10T13:30:53.883Z,35.20
2018-11-10T13:31:53.732Z,32.90
2018-11-10T13:32:53.646Z,32.50
2018-11-10T13:33:53.559Z,33.60
2018-11-10T13:34:53.484Z,33.40
2018-11-10T13:35:53.399Z,30.90
2018-11-10T13:36:53.309Z,33.20
2018-11-10T13:37:53.243Z,31.80
2018-11-10T13:38:53.206Z,33.10
2018-11-10T13:39:53.076Z,33.10
2018-11-10T13:40:52.984Z,32.40
2018-11-10T13:41:52.910Z,31.40
2018-11-10T13:42:52.823Z,31.80
2018-11-10T13:43:52.794Z,33.20
2018-11-10T13:44:52.660Z,34.10
2018-11-10T13:45:52.574Z,30.80
2018-11-10T13:46:52.497Z,33.90
2018-11-10T13:47:52.410Z,33.40
2018-11-10T13:48:52.335Z,31.80
2018-11-10T13:49:52.247Z,33.50
2018-11-10T13:50:52.338Z,33.40
2018-11-10T13:51:52.236Z,31.20
2018-11-10T13:52:52.448Z,35.50
2018-11-10T13:53:51.923Z,36.20
2018-11-10T13:54:51.836Z,39.10
2018-11-10T13:55:51.818Z,42.10
2018-11-10T13:56:51.674Z,37.50
2018-11-10T13:57:51.598Z,32.30
2018-11-10T13:58:51.512Z,28.40
2018-11-10T13:59:51.436Z,32.60
2018-11-10T14:00:51.349Z,31.70
2018-11-10T14:01:51.273Z,31.30
2018-11-10T14:02:51.187Z,35.80
2018-11-10T14:03:51.101Z,42.40
2018-11-10T14:04:51.026Z,48.20
2018-11-10T14:05:50.945Z,39.30
2018-11-10T14:06:50.863Z,45.20
2018-11-10T14:07:50.774Z,43.60
2018-11-10T14:08:50.713Z,36.60
2018-11-10T14:09:50.612Z,35.60
2018-11-10T14:10:50.525Z,36.70
2018-11-10T14:11:50.450Z,34.50
2018-11-10T14:12:50.444Z,34.40
2018-11-10T14:13:50.289Z,32.40
2018-11-10T14:14:50.206Z,32.70
2018-11-10T14:15:50.126Z,35.10
2018-11-10T14:16:50.040Z,38.80
2018-11-10T14:17:49.972Z,39.30
2018-11-10T14:18:49.876Z,35.10
2018-11-10T14:19:49.792Z,32.00
2018-11-10T14:20:49.786Z,30.40
2018-11-10T14:21:49.638Z,33.50
2018-11-10T14:22:49.551Z,37.60
2018-11-10T14:23:49.465Z,34.30
2018-11-10T14:24:49.394Z,36.00
2018-11-10T14:25:49.301Z,30.90
2018-11-10T14:26:49.215Z,32.20
2018-11-10T14:27:49.141Z,38.50
2018-11-10T14:28:49.051Z,35.60
2018-11-10T14:29:48.979Z,34.40
2018-11-10T14:30:48.891Z,38.00
2018-11-10T14:31:48.815Z,31.70
2018-11-10T14:32:48.742Z,32.40
2018-11-10T14:33:48.652Z,34.10
2018-11-10T14:34:48.566Z,32.60
2018-11-10T14:35:48.481Z,31.60
2018-11-10T14:36:48.402Z,32.70
2018-11-10T14:37:48.316Z,33.20
2018-11-10T14:38:48.240Z,31.90
2018-11-10T14:39:48.152Z,30.20
2018-11-10T14:40:48.067Z,29.70
2018-11-10T14:41:47.992Z,33.80
2018-11-10T14:42:47.905Z,32.00
2018-11-10T14:43:47.828Z,32.80
2018-11-10T14:44:47.743Z,32.60
2018-11-10T14:45:47.667Z,32.70
2018-11-10T14:46:47.583Z,30.20
2018-11-10T14:47:47.492Z,34.60
2018-11-10T14:48:47.418Z,30.80
2018-11-10T14:49:47.329Z,33.00
2018-11-10T14:50:47.254Z,35.20
2018-11-10T14:51:47.168Z,31.20
2018-11-10T14:52:47.207Z,31.50
2018-11-10T14:53:47.005Z,33.10
2018-11-10T14:54:46.918Z,32.10
2018-11-10T14:55:46.848Z,30.40
2018-11-10T14:56:46.755Z,32.90
2018-11-10T14:57:46.680Z,32.00
2018-11-10T14:58:46.680Z,35.80